Wetterdaten: aktuell Montag, 21.10.2019 18:00
Datum Zeit Temp. A. Luft Gew. Boden Gew. Boden A. Feuchte A. Luftdruck Regen Wind Richtung Richtung Sonnenschein ET UV Solar Taupunkt Windchill Windben Empfang
21.10.2019 18:00 15.7 C 10.6 C 0.0 C 0.0 C 88 % 1021.3 hPa 0.0 l/m 0.0 km/h (0 Bft) O-SO 111 0 min 0.050 mm 0.0 UV-I 14 W/m 13.7 C 15.7 C 0.0 km/h (0 Bft) 99.15 %
21.10.2019 17:00 16.6 C 10.6 C 0.0 C 0.0 C 84 % 1021.3 hPa 0.0 l/m 0.1 km/h (0 Bft) O-SO 111 5 min 0.001 mm 0.0 UV-I 51 W/m 13.9 C 16.6 C 1.6 km/h (1 Bft) 100.00 %
21.10.2019 16:00 17.1 C 10.6 C 0.0 C 0.0 C 83 % 1021.5 hPa 0.0 l/m 0.2 km/h (0 Bft) O-SO 109 30 min 0.101 mm 0.6 UV-I 135 W/m 14.2 C 17.1 C 1.6 km/h (1 Bft) 100.00 %
21.10.2019 15:00 17.2 C 10.6 C 0.0 C 0.0 C 82 % 1021.6 hPa 0.2 l/m 0.3 km/h (0 Bft) O 90 45 min 0.001 mm 0.8 UV-I 131 W/m 14.1 C 17.2 C 3.2 km/h (1 Bft) 97.44 %
21.10.2019 14:00 17.3 C 10.6 C 0.0 C 0.0 C 83 % 1021.2 hPa 0.0 l/m 3.2 km/h (1 Bft) O-NO 65 60 min 0.152 mm 1.6 UV-I 283 W/m 14.4 C 17.3 C 8.0 km/h (2 Bft) 100.00 %
21.10.2019 13:00 15.7 C 10.6 C 0.0 C 0.0 C 92 % 1021.2 hPa 0.0 l/m 0.0 km/h (0 Bft) SW 233 60 min 0.076 mm 2.1 UV-I 375 W/m 14.4 C 15.7 C 0.0 km/h (0 Bft) 100.00 %
21.10.2019 12:00 12.8 C 10.6 C 0.0 C 0.0 C 97 % 1020.7 hPa 0.0 l/m 0.7 km/h (0 Bft) W-NW 288 10 min 0.001 mm 1.2 UV-I 179 W/m 12.3 C 12.8 C 6.4 km/h (2 Bft) 100.00 %
21.10.2019 11:00 11.8 C 10.6 C 0.0 C 0.0 C 97 % 1020.1 hPa 0.0 l/m 0.2 km/h (0 Bft) W-NW 297 0 min 0.025 mm 0.6 UV-I 120 W/m 11.3 C 11.8 C 3.2 km/h (1 Bft) 98.29 %
21.10.2019 10:00 10.6 C 10.6 C 0.0 C 0.0 C 97 % 1020.2 hPa 0.0 l/m 2.5 km/h (1 Bft) W 272 0 min 0.000 mm 0.0 UV-I 55 W/m 10.1 C 10.6 C 6.4 km/h (2 Bft) 100.00 %
21.10.2019 09:00 10.1 C 10.6 C 0.0 C 0.0 C 97 % 1019.3 hPa 0.0 l/m 1.0 km/h (0 Bft) W 272 0 min 0.000 mm 0.0 UV-I 35 W/m 9.6 C 10.1 C 6.4 km/h (2 Bft) 99.15 %
21.10.2019 08:00 8.8 C 10.6 C 0.0 C 0.0 C 97 % 1018.7 hPa 0.0 l/m 5.8 km/h (2 Bft) W-SW 241 0 min 0.000 mm 0.0 UV-I 5 W/m 8.4 C 8.8 C 9.7 km/h (2 Bft) 100.00 %
21.10.2019 07:00 8.5 C 10.6 C 0.0 C 0.0 C 96 % 1017.6 hPa 0.0 l/m 2.9 km/h (1 Bft) W-SW 257 0 min 0.000 mm 0.0 UV-I 0 W/m 7.9 C 8.5 C 6.4 km/h (2 Bft) 96.58 %
21.10.2019 06:00 7.8 C 10.6 C 0.0 C 0.0 C 96 % 1016.1 hPa 0.0 l/m 0.0 km/h (0 Bft) W-SW 244 0 min 0.000 mm 0.0 UV-I 0 W/m 7.2 C 7.8 C 1.6 km/h (1 Bft) 98.29 %
21.10.2019 05:00 8.4 C 10.6 C 0.0 C 0.0 C 96 % 1015.5 hPa 0.0 l/m 0.0 km/h (0 Bft) W-SW 244 0 min 0.000 mm 0.0 UV-I 0 W/m 7.8 C 8.4 C 0.0 km/h (0 Bft) 96.58 %
21.10.2019 04:00 9.0 C 10.6 C 0.0 C 0.0 C 96 % 1014.7 hPa 0.0 l/m 0.0 km/h (0 Bft) W-SW 244 0 min 0.000 mm 0.0 UV-I 0 W/m 8.4 C 9.0 C 0.0 km/h (0 Bft) 99.15 %
21.10.2019 03:00 9.1 C 10.6 C 0.0 C 0.0 C 96 % 1014.0 hPa 0.2 l/m 1.5 km/h (1 Bft) W-NW 284 0 min 0.000 mm 0.0 UV-I 0 W/m 8.5 C 9.1 C 6.4 km/h (2 Bft) 100.00 %
21.10.2019 02:00 8.9 C 10.6 C 0.0 C 0.0 C 96 % 1013.3 hPa 0.0 l/m 0.9 km/h (0 Bft) O-NO 72 0 min 0.000 mm 0.0 UV-I 0 W/m 8.3 C 8.9 C 4.8 km/h (1 Bft) 97.44 %
21.10.2019 01:00 10.3 C 10.6 C 0.0 C 0.0 C 96 % 1012.7 hPa 0.0 l/m 0.0 km/h (0 Bft) O-NO 74 0 min 0.000 mm 0.0 UV-I 0 W/m 9.7 C 10.3 C 0.0 km/h (0 Bft) 100.00 %
21.10.2019 00:00 11.2 C 10.6 C 0.0 C 0.0 C 96 % 1012.1 hPa 0.0 l/m 2.9 km/h (1 Bft) O-NO 75 0 min 0.000 mm 0.0 UV-I 0 W/m 10.6 C 11.2 C 6.4 km/h (2 Bft) 100.00 %
20.10.2019 23:00 11.8 C 10.6 C 0.0 C 0.0 C 96 % 1012.0 hPa 0.0 l/m 0.0 km/h (0 Bft) O-NO 69 0 min 0.000 mm 0.0 UV-I 0 W/m 11.2 C 11.8 C 0.0 km/h (0 Bft) 100.00 %
20.10.2019 22:00 11.8 C 10.6 C 0.0 C 0.0 C 96 % 1011.3 hPa 0.0 l/m 1.9 km/h (1 Bft) O-NO 65 0 min 0.000 mm 0.0 UV-I 0 W/m 11.2 C 11.8 C 4.8 km/h (1 Bft) 96.58 %
20.10.2019 21:00 11.1 C 10.6 C 0.0 C 0.0 C 95 % 1010.8 hPa 0.0 l/m 0.3 km/h (0 Bft) NO 47 0 min 0.000 mm 0.0 UV-I 0 W/m 10.3 C 11.1 C 3.2 km/h (1 Bft) 96.58 %
20.10.2019 20:00 11.6 C 10.6 C 0.0 C 0.0 C 94 % 1010.7 hPa 0.0 l/m 0.0 km/h (0 Bft) NO 47 0 min 0.000 mm 0.0 UV-I 0 W/m 10.7 C 11.6 C 0.0 km/h (0 Bft) 98.29 %
20.10.2019 19:00 12.4 C 10.6 C 0.0 C 0.0 C 93 % 1010.7 hPa 0.0 l/m 0.2 km/h (0 Bft) NO 47 0 min 0.000 mm 0.0 UV-I 0 W/m 11.3 C 12.4 C 3.2 km/h (1 Bft) 99.15 %
_ Min-Zeit 05:50 19:00 19:00 19:00 14:05 19:05 - 19:05 - - - - - - 05:50 05:50 19:05 20:30
Minimum _ 7.8 C 10.6 C 0.0 C 0.0 C 82 % 1010.6 hPa - 0.0 km/h (0 Bft) - - - - - - 7.2 C 7.8 C 0.0 km/h (0 Bft) 95.73 %
_ Max-Zeit 14:00 19:00 19:00 19:00 11:45 15:25 02:10 02:05 - - 11:55 13:05 12:45 12:45 12:45 14:00 02:05 22:25
Maximum _ 17.3 C 10.6 C 0.0 C 0.0 C 100 % 1021.7 hPa 0.2 l/m 7.2 km/h
W-SW (2 Bft)
- - 5 min 0.152 mm 2.2 UV-I 474 W/m 14.8 C 17.3 C 19.3 km/h
W-SW (3 Bft)
100.00 %
Durchschnitt _ 11.9 C 10.6 C 0.0 C 0.0 C 93 % 1016.2 hPa #0.4 l/m 1.2 km/h (1 Bft) W-SW - #3:30 h #0.660 mm 1.1 UV-I 132 W/m 10.8 C 11.9 C 3.6 km/h (1 Bft) 98.89 %